Главная страница
METAR-TAF:

METAR-TAF

Аэропорты :

Форт-Сент-Джон, Британская Колумбия, Канада

широта: 56-14N, долгота: 120-44W, высота над уровнем моря: 695 м

Текущие метеонаблюдения

Эта сводка был подготовлена 16 минут назад, в 09:00 UTC
Ветер 23 Узел от юго-западный с порывами до 31 Узел
Температура 1°C
Влажность 59%
Давление 986 hPa
Видимость: 24.1 км
небольшая облачность на высоте 20000 фута

METAR: CYXJ 120900Z 23023G31KT 15SM FEW200 01/M06 A2912 RMK CI1 SLP886

Время: 02:16 (09:16 UTC)

Прогноз

Эта сводка был подготовлена 2 часа и 38 минут назад, в 06:38 UTC
Прогноз действительный с 12-го 07 UTC до 12-го 19 UTC
Ветер 18 Узел от юго-западный с порывами до 28 Узел
Видимость: 10 км
Отдельные облака на высоте 18000 фута
изменения
С 12-го 12 UTC до 12-го 14 UTC
Ветер 23 Узел от юго-западный с порывами до 33 Узел

TAF: CYXJ 120638Z 1207/1219 23018G28KT P6SM SCT180 BECMG 1212/1214 23023G33KT RMK NXT FCST BY 121300Z

Метеонаблюдения и прогнозы для более 4000 аэропортов (сводки METAR и TAF).

Имеющиеся станции представлены на карте желтыми и красными точками.

Чтобы увидеть название станции, наведите на нее мышь.

Затем щелкните, чтобы увидеть метеонаблюдения и метеопрогнозы.

Управление картой: чтобы увеличить масштаб, щелкните зеленые кнопки с черным крестиком; чтобы уменьшить масштаб, щелкните зеленую кнопку с тире; для просмотра соседних карт щелкайте зеленые стрелки.


METAR-TAF: